Time;durP1;ratioP1;P1;durP2;ratioP2;P2;SDS_P1;SDS_P2;PMS_P1;PMS_P2;Temp;Humidity;BMP_temperature;BMP_pressure;BME280_temperature;BME280_humidity;BME280_pressure;Samples;Min_cycle;Max_cycle;Signal;HPM_P1;HPM_P2
2021/03/17 00:05:24;;;;;;;3.17;2.00;;;;;;;;;;5054101;28;20045;-57
2021/03/17 00:10:54;;;;;;;3.50;1.97;;;;;;;;;;5046799;28;20064;-57
2021/03/17 00:16:43;;;;;;;;;;;;;;;;;;;;;
2021/03/17 00:22:25;;;;;;;2.70;1.90;;;;;;;;;;5040910;28;20044;-58
2021/03/17 00:25:16;;;;;;;4.40;2.57;;;;;;;;;;5058283;28;20029;-57
2021/03/17 00:27:49;;;;;;;2.47;1.77;;;;;;;;;;5058233;28;20025;-57
2021/03/17 00:30:24;;;;;;;2.97;2.03;;;;;;;;;;5040243;28;20502;-57
2021/03/17 00:33:15;;;;;;;3.57;2.17;;;;;;;;;;5058045;28;20153;-58
2021/03/17 00:35:42;;;;;;;;;;;;;;;;;;5057864;28;20029;-57
2021/03/17 00:38:11;;;;;;;3.63;2.37;;;;;;;;;;5039362;28;19911;-57
2021/03/17 00:40:47;;;;;;;4.13;2.70;;;;;;;;;;5057912;28;20467;-57
2021/03/17 00:43:19;;;;;;;4.10;2.57;;;;;;;;;;5058040;28;20087;-57
2021/03/17 00:46:02;;;;;;;;;;;;;;;;;;;;;
2021/03/17 00:48:42;;;;;;;;;;;;;;;;;;;;;
2021/03/17 00:51:21;;;;;;;3.70;2.85;;;;;;;;;;5052288;28;20132;-57
2021/03/17 00:54:07;;;;;;;3.97;2.60;;;;;;;;;;5056662;28;20029;-57
2021/03/17 00:57:07;;;;;;;4.17;2.40;;;;;;;;;;5057897;28;20126;-57
2021/03/17 01:00:06;;;;;;;4.47;2.67;;;;;;;;;;5057255;28;20017;-57
2021/03/17 01:03:04;;;;;;;4.93;2.67;;;;;;;;;;5022276;28;20379;-54
2021/03/17 01:05:41;;;;;;;3.60;2.47;;;;;;;;;;5056575;28;20127;-57
2021/03/17 01:08:19;;;;;;;4.40;3.33;;;;;;;;;;5057384;28;20365;-57
2021/03/17 01:10:59;;;;;;;3.40;2.43;;;;;;;;;;5040346;28;20018;-57
2021/03/17 01:13:38;;;;;;;3.83;2.83;;;;;;;;;;5039880;28;20036;-58
2021/03/17 01:16:05;;;;;;;4.60;3.40;;;;;;;;;;5056921;28;20025;-56
2021/03/17 01:18:37;;;;;;;4.90;3.17;;;;;;;;;;5057372;28;20028;-57
2021/03/17 01:21:12;;;;;;;5.60;3.60;;;;;;;;;;5056942;28;20040;-58
2021/03/17 01:23:47;;;;;;;7.03;3.90;;;;;;;;;;5057354;28;20025;-58
2021/03/17 01:26:26;;;;;;;5.20;3.97;;;;;;;;;;5057369;28;20021;-57
2021/03/17 01:29:11;;;;;;;4.50;3.20;;;;;;;;;;5057448;28;20033;-58
2021/03/17 01:31:57;;;;;;;4.23;3.10;;;;;;;;;;5039501;28;20025;-58
2021/03/17 01:34:32;;;;;;;4.97;3.27;;;;;;;;;;5041880;28;20068;-59
2021/03/17 01:37:10;;;;;;;4.57;3.60;;;;;;;;;;5038141;28;20111;-58
2021/03/17 01:39:44;;;;;;;5.97;3.43;;;;;;;;;;5037666;28;20029;-58
2021/03/17 01:42:32;;;;;;;3.57;2.80;;;;;;;;;;5034676;28;20087;-58
2021/03/17 01:45:28;;;;;;;3.87;2.80;;;;;;;;;;5034390;28;20038;-57
2021/03/17 01:51:12;;;;;;;5.90;4.53;;;;;;;;;;5033807;28;20068;-57
2021/03/17 01:53:51;;;;;;;4.63;2.97;;;;;;;;;;5033392;28;20029;-58
2021/03/17 01:56:26;;;;;;;4.47;3.43;;;;;;;;;;5018654;28;20056;-57
2021/03/17 01:59:24;;;;;;;6.70;4.10;;;;;;;;;;5034557;28;20041;-58
2021/03/17 02:02:09;;;;;;;5.13;3.77;;;;;;;;;;5010337;28;20060;-57
2021/03/17 02:04:41;;;;;;;5.23;3.10;;;;;;;;;;5017211;28;20072;-57
2021/03/17 02:10:02;;;;;;;5.97;4.40;;;;;;;;;;5056064;28;20069;-57
2021/03/17 02:12:38;;;;;;;4.63;3.57;;;;;;;;;;5038457;28;20036;-57
2021/03/17 02:15:13;;;;;;;5.50;4.37;;;;;;;;;;5055878;28;20029;-57
2021/03/17 02:18:14;;;;;;;6.77;4.07;;;;;;;;;;5055349;28;20048;-57
2021/03/17 02:24:19;;;;;;;5.53;4.10;;;;;;;;;;4974719;28;20026;-57
2021/03/17 02:30:12;;;;;;;4.20;3.30;;;;;;;;;;5003184;28;20026;-57
2021/03/17 02:32:57;;;;;;;6.83;3.60;;;;;;;;;;5042733;28;20124;-58
2021/03/17 02:35:41;;;;;;;5.53;3.67;;;;;;;;;;5055401;28;20025;-58
2021/03/17 02:41:58;;;;;;;6.53;3.90;;;;;;;;;;5045958;28;20106;-58
2021/03/17 02:44:36;;;;;;;4.87;3.60;;;;;;;;;;5055535;28;20017;-56
2021/03/17 02:47:32;;;;;;;5.50;3.93;;;;;;;;;;5038835;28;20067;-56
2021/03/17 02:53:11;;;;;;;6.97;5.10;;;;;;;;;;5055319;28;20040;-57
2021/03/17 02:55:46;;;;;;;5.57;3.93;;;;;;;;;;5055537;28;20036;-58
2021/03/17 02:58:24;;;;;;;5.87;4.10;;;;;;;;;;5037553;28;20166;-57
2021/03/17 03:01:04;;;;;;;5.00;3.23;;;;;;;;;;5038964;28;20017;-58
2021/03/17 03:03:45;;;;;;;4.57;3.65;;;;;;;;;;5037314;28;20062;-57
2021/03/17 03:06:12;;;;;;;;;;;;;;;;;;5055483;28;20045;-57
2021/03/17 03:09:07;;;;;;;;;;;;;;;;;;;;;
2021/03/17 03:11:46;;;;;;;7.10;4.13;;;;;;;;;;5055742;28;20100;-57
2021/03/17 03:14:42;;;;;;;5.73;3.77;;;;;;;;;;5055085;28;20025;-56
2021/03/17 03:17:12;;;;;;;6.10;3.73;;;;;;;;;;5037820;28;20179;-57
2021/03/17 03:19:46;;;;;;;4.38;3.50;;;;;;;;;;5055747;28;20743;-58
2021/03/17 03:22:25;;;;;;;5.67;3.60;;;;;;;;;;5055745;28;20040;-57
2021/03/17 03:25:33;;;;;;;;;;;;;;;;;;;;;
2021/03/17 03:28:16;;;;;;;4.63;3.93;;;;;;;;;;5044102;28;20119;-57
2021/03/17 03:30:54;;;;;;;4.83;3.53;;;;;;;;;;5037431;28;20356;-57
2021/03/17 03:33:38;;;;;;;5.10;3.70;;;;;;;;;;5037142;28;20049;-58
2021/03/17 03:36:27;;;;;;;4.80;3.77;;;;;;;;;;5037758;28;20414;-57
2021/03/17 03:39:37;;;;;;;5.27;3.53;;;;;;;;;;5055746;28;20036;-57
2021/03/17 03:42:23;;;;;;;;;;;;;;;;;;;;;
2021/03/17 03:45:11;;;;;;;4.40;2.93;;;;;;;;;;5044466;28;20116;-57
2021/03/17 03:47:37;;;;;;;5.17;4.20;;;;;;;;;;5055766;28;20083;-58
2021/03/17 03:50:10;;;;;;;4.73;3.10;;;;;;;;;;5036672;28;20037;-57
2021/03/17 03:52:56;;;;;;;4.20;3.80;;;;;;;;;;5021748;28;20037;-57
2021/03/17 03:55:37;;;;;;;4.63;3.30;;;;;;;;;;5055575;28;20433;-57
2021/03/17 03:58:11;;;;;;;5.47;4.37;;;;;;;;;;5055904;28;20028;-57
2021/03/17 04:03:41;;;;;;;5.70;5.00;;;;;;;;;;5046492;28;20099;-57
2021/03/17 04:06:21;;;;;;;4.80;4.10;;;;;;;;;;5054398;28;20073;-58
2021/03/17 04:09:12;;;;;;;6.27;4.43;;;;;;;;;;5021511;28;20032;-57
2021/03/17 04:11:53;;;;;;;9.43;5.23;;;;;;;;;;5000158;28;20047;-57
2021/03/17 04:14:52;;;;;;;6.82;5.22;;;;;;;;;;5043105;28;20041;-56
2021/03/17 04:17:55;;;;;;;6.30;4.90;;;;;;;;;;5038982;28;20029;-57
2021/03/17 04:20:50;;;;;;;6.23;5.17;;;;;;;;;;5044260;28;20039;-57
2021/03/17 04:26:33;;;;;;;9.33;4.97;;;;;;;;;;5046830;28;20048;-57
2021/03/17 04:29:24;;;;;;;6.30;5.07;;;;;;;;;;5057864;28;20093;-57
2021/03/17 04:34:47;;;;;;;7.50;5.33;;;;;;;;;;5044687;28;20029;-58
2021/03/17 04:37:17;;;;;;;10.07;7.13;;;;;;;;;;5057012;28;20025;-58
2021/03/17 04:39:58;;;;;;;6.83;6.17;;;;;;;;;;5038645;28;20025;-57
2021/03/17 04:42:31;;;;;;;;;;;;;;;;;;5056910;28;20029;-57
2021/03/17 04:45:26;;;;;;;6.27;5.00;;;;;;;;;;5056321;28;19999;-57
2021/03/17 04:48:22;;;;;;;5.60;4.97;;;;;;;;;;5010656;28;20029;-58
2021/03/17 04:51:21;;;;;;;7.20;6.37;;;;;;;;;;5030437;28;20120;-57
2021/03/17 04:57:41;;;;;;;8.47;7.03;;;;;;;;;;5056595;28;20037;-56
2021/03/17 05:00:44;;;;;;;9.83;7.37;;;;;;;;;;5015586;28;20043;-57
2021/03/17 05:03:36;;;;;;;10.00;7.30;;;;;;;;;;5031575;28;20044;-56
2021/03/17 05:10:16;;;;;;;;;;;;;;;;;;;;;
2021/03/17 05:13:04;;;;;;;8.47;7.33;;;;;;;;;;5054364;28;20095;-58
2021/03/17 05:16:06;;;;;;;11.87;7.63;;;;;;;;;;5056364;28;20066;-57
2021/03/17 05:18:55;;;;;;;;;;;;;;;;;;;;;
2021/03/17 05:21:58;;;;;;;12.20;7.33;;;;;;;;;;5055702;28;20033;-55
2021/03/17 05:24:38;;;;;;;;;;;;;;;;;;;;;
2021/03/17 05:27:09;;;;;;;13.85;9.48;;;;;;;;;;5051078;28;20129;-58
2021/03/17 05:29:45;;;;;;;9.10;7.70;;;;;;;;;;5055569;28;20036;-58
2021/03/17 05:32:27;;;;;;;10.77;7.53;;;;;;;;;;5038019;28;20037;-58
2021/03/17 05:35:27;;;;;;;12.13;8.70;;;;;;;;;;5055523;28;20078;-57
2021/03/17 05:38:15;;;;;;;11.40;9.82;;;;;;;;;;5056000;28;20017;-58
2021/03/17 05:40:50;;;;;;;15.60;8.90;;;;;;;;;;5055414;28;20033;-58
2021/03/17 05:43:20;;;;;;;14.47;9.47;;;;;;;;;;5055557;28;20030;-58
2021/03/17 05:46:05;;;;;;;14.10;10.40;;;;;;;;;;5032797;28;20041;-58
2021/03/17 05:49:00;;;;;;;12.53;10.20;;;;;;;;;;5056095;28;20527;-57
2021/03/17 05:51:45;;;;;;;15.33;11.27;;;;;;;;;;5033232;28;20120;-57
2021/03/17 05:57:38;;;;;;;17.13;11.47;;;;;;;;;;4960827;28;20183;-58
2021/03/17 06:00:35;;;;;;;11.80;9.77;;;;;;;;;;5013412;28;20064;-58
2021/03/17 06:03:26;;;;;;;;;;;;;;;;;;;;;
2021/03/17 06:09:00;;;;;;;13.50;11.27;;;;;;;;;;5012771;28;19915;-57
2021/03/17 06:11:40;;;;;;;14.33;11.30;;;;;;;;;;4996089;28;20045;-58
2021/03/17 06:14:08;;;;;;;15.57;11.63;;;;;;;;;;4996666;28;20437;-60
2021/03/17 06:16:47;;;;;;;16.57;12.63;;;;;;;;;;4995982;28;20479;-58
2021/03/17 06:19:25;;;;;;;15.40;12.17;;;;;;;;;;5012707;28;20403;-58
2021/03/17 06:25:10;;;;;;;19.37;14.83;;;;;;;;;;5003643;28;20404;-58
2021/03/17 06:27:59;;;;;;;18.33;14.25;;;;;;;;;;5014270;28;20106;-58
2021/03/17 06:30:40;;;;;;;15.97;13.53;;;;;;;;;;5051284;28;20036;-56
2021/03/17 06:33:09;;;;;;;14.43;10.90;;;;;;;;;;5054129;28;20033;-58
2021/03/17 06:39:13;;;;;;;14.87;12.73;;;;;;;;;;5031031;28;20095;-56
2021/03/17 06:41:44;;;;;;;13.50;8.70;;;;;;;;;;5036185;28;20526;-57
2021/03/17 06:44:29;;;;;;;14.35;12.30;;;;;;;;;;5020100;28;20037;-58
2021/03/17 06:47:42;;;;;;;;;;;;;;;;;;;;;
2021/03/17 06:50:54;;;;;;;12.67;10.00;;;;;;;;;;5052632;28;20040;-58
2021/03/17 06:53:34;;;;;;;15.33;10.37;;;;;;;;;;5053047;28;20112;-58
2021/03/17 06:59:43;;;;;;;15.63;12.53;;;;;;;;;;5023771;28;20025;-57
2021/03/17 07:02:44;;;;;;;15.73;12.97;;;;;;;;;;5053269;28;20043;-57
2021/03/17 07:05:25;;;;;;;22.47;14.67;;;;;;;;;;5053814;28;20071;-57
2021/03/17 07:08:30;;;;;;;;;;;;;;;;;;;;;
2021/03/17 07:17:39;;;;;;;18.20;13.80;;;;;;;;;;5034314;28;20025;-58
2021/03/17 07:20:20;;;;;;;18.30;12.60;;;;;;;;;;5034622;28;20376;-58
2021/03/17 07:23:09;;;;;;;;;;;;;;;;;;;;;
2021/03/17 07:26:03;;;;;;;18.10;13.20;;;;;;;;;;5030763;28;20143;-58
2021/03/17 07:31:51;;;;;;;16.30;13.80;;;;;;;;;;5028478;28;20029;-58
2021/03/17 07:34:30;;;;;;;15.53;12.80;;;;;;;;;;5033883;28;20076;-56
2021/03/17 07:37:06;;;;;;;21.43;13.67;;;;;;;;;;5015913;28;20030;-54
2021/03/17 07:40:03;;;;;;;18.77;15.43;;;;;;;;;;5034119;28;20037;-55
2021/03/17 07:42:38;;;;;;;16.80;11.60;;;;;;;;;;5034801;28;20476;-55
2021/03/17 07:45:34;;;;;;;19.83;13.40;;;;;;;;;;5015195;28;20029;-57
2021/03/17 07:48:26;;;;;;;;;;;;;;;;;;;;;
2021/03/17 07:51:11;;;;;;;16.63;10.40;;;;;;;;;;5032150;28;20093;-57
2021/03/17 07:54:18;;;;;;;;;;;;;;;;;;;;;
2021/03/17 07:57:06;;;;;;;15.67;12.50;;;;;;;;;;4993090;28;20121;-57
2021/03/17 07:59:44;;;;;;;15.23;10.87;;;;;;;;;;4992924;28;20054;-56
2021/03/17 08:02:22;;;;;;;15.33;11.60;;;;;;;;;;4996867;28;20042;-57
2021/03/17 08:08:09;;;;;;;13.70;12.10;;;;;;;;;;5002747;28;20488;-57
2021/03/17 08:11:03;;;;;;;15.07;12.23;;;;;;;;;;5015908;28;20042;-57
2021/03/17 08:13:58;;;;;;;16.17;10.23;;;;;;;;;;5015578;28;20037;-57
2021/03/17 08:16:32;;;;;;;9.87;7.77;;;;;;;;;;5000620;28;20096;-57
2021/03/17 08:19:28;;;;;;;7.77;4.63;;;;;;;;;;5049687;28;20429;-56
2021/03/17 08:22:25;;;;;;;5.33;3.73;;;;;;;;;;5056684;28;20443;-57
2021/03/17 08:28:13;;;;;;;4.60;2.73;;;;;;;;;;5056514;28;20029;-56
2021/03/17 08:30:46;;;;;;;8.83;6.03;;;;;;;;;;5052691;28;20059;-56
2021/03/17 08:33:36;;;;;;;9.10;5.30;;;;;;;;;;5039012;28;20029;-54
2021/03/17 08:36:34;;;;;;;8.25;6.55;;;;;;;;;;5056959;28;20332;-54
2021/03/17 08:42:24;;;;;;;6.77;5.70;;;;;;;;;;5040205;28;20080;-57
2021/03/17 08:45:27;;;;;;;;;;;;;;;;;;;;;
2021/03/17 08:48:39;;;;;;;8.40;4.83;;;;;;;;;;4955800;28;20413;-55
2021/03/17 08:51:30;;;;;;;7.60;6.43;;;;;;;;;;4975117;28;20039;-57
2021/03/17 08:54:01;;;;;;;;;;;;;;;;;;5057511;28;20363;-57
2021/03/17 08:59:51;;;;;;;7.20;5.53;;;;;;;;;;5056086;28;20036;-56
2021/03/17 09:02:46;;;;;;;7.20;5.77;;;;;;;;;;5038815;28;20041;-55
2021/03/17 09:05:25;;;;;;;6.60;5.50;;;;;;;;;;5035149;28;20037;-53
2021/03/17 09:08:01;;;;;;;10.77;7.70;;;;;;;;;;5055083;28;20052;-57
2021/03/17 09:14:00;;;;;;;7.17;5.13;;;;;;;;;;5027197;28;20047;-56
2021/03/17 09:20:20;;;;;;;8.47;5.23;;;;;;;;;;5055579;28;20127;-54
2021/03/17 09:22:50;;;;;;;6.22;3.95;;;;;;;;;;5055808;28;20455;-57
2021/03/17 09:25:48;;;;;;;5.50;4.72;;;;;;;;;;5055872;28;20025;-57
2021/03/17 09:28:27;;;;;;;6.93;4.50;;;;;;;;;;5038578;28;20463;-55
2021/03/17 09:31:12;;;;;;;5.03;3.43;;;;;;;;;;5038069;28;20566;-53
2021/03/17 09:33:57;;;;;;;4.67;2.53;;;;;;;;;;5037463;28;20033;-57
2021/03/17 09:36:41;;;;;;;5.13;3.47;;;;;;;;;;5022881;28;20033;-57
2021/03/17 09:39:27;;;;;;;;;;;;;;;;;;;;;
2021/03/17 09:45:36;;;;;;;4.07;3.33;;;;;;;;;;5055359;28;20126;-57
2021/03/17 09:48:08;;;;;;;5.43;3.17;;;;;;;;;;5055307;28;20029;-56
2021/03/17 09:51:00;;;;;;;6.18;3.15;;;;;;;;;;5055446;28;20386;-55
2021/03/17 10:00:03;;;;;;;7.40;4.30;;;;;;;;;;5031446;28;20033;-57
2021/03/17 10:02:38;;;;;;;3.53;2.80;;;;;;;;;;5037077;28;20037;-54
2021/03/17 10:05:23;;;;;;;4.40;2.70;;;;;;;;;;5055816;28;20029;-56
2021/03/17 10:08:32;;;;;;;3.40;2.43;;;;;;;;;;5054189;28;20045;-57
2021/03/17 10:11:24;;;;;;;4.33;2.60;;;;;;;;;;5046207;28;20033;-54
2021/03/17 10:14:37;;;;;;;3.63;2.50;;;;;;;;;;5054902;28;20094;-55
2021/03/17 10:17:01;;;;;;;;;;;;;;;;;;5054387;28;20471;-56
2021/03/17 10:19:28;;;;;;;5.72;3.30;;;;;;;;;;5055094;28;19999;-57
2021/03/17 10:22:07;;;;;;;5.20;3.20;;;;;;;;;;5036535;28;20044;-58
2021/03/17 10:25:08;;;;;;;4.30;2.92;;;;;;;;;;5037176;28;20040;-57
2021/03/17 10:27:41;;;;;;;5.57;3.73;;;;;;;;;;5023916;28;20494;-56
2021/03/17 10:30:42;;;;;;;;;;;;;;;;;;;;;
2021/03/17 10:33:18;;;;;;;5.87;2.83;;;;;;;;;;5052300;28;20119;-56
2021/03/17 10:35:56;;;;;;;7.77;2.50;;;;;;;;;;5039791;28;20457;-56
2021/03/17 10:39:04;;;;;;;;;;;;;;;;;;;;;
2021/03/17 10:41:49;;;;;;;10.03;3.57;;;;;;;;;;5054244;28;20036;-56
2021/03/17 10:44:29;;;;;;;4.33;2.80;;;;;;;;;;5054112;28;20033;-57
2021/03/17 10:47:15;;;;;;;7.85;3.47;;;;;;;;;;5051702;28;20110;-56
2021/03/17 10:50:06;;;;;;;;;;;;;;;;;;;;;
2021/03/17 10:55:39;;;;;;;4.22;2.58;;;;;;;;;;5029997;28;20445;-57
2021/03/17 10:58:16;;;;;;;3.87;2.10;;;;;;;;;;5053882;28;20051;-55
2021/03/17 11:01:16;;;;;;;12.57;6.55;;;;;;;;;;5018797;28;20029;-58
2021/03/17 11:03:45;;;;;;;5.30;2.85;;;;;;;;;;5053201;28;20482;-58
2021/03/17 11:06:13;;;;;;;4.32;2.10;;;;;;;;;;5053192;28;20021;-58
2021/03/17 11:08:40;;;;;;;4.28;2.95;;;;;;;;;;5053600;28;20049;-58
2021/03/17 11:11:17;;;;;;;5.93;3.53;;;;;;;;;;5053120;28;20036;-58
2021/03/17 11:14:05;;;;;;;4.10;3.47;;;;;;;;;;5053355;28;20112;-57
2021/03/17 11:16:35;;;;;;;3.83;2.40;;;;;;;;;;5054294;28;20076;-58
2021/03/17 11:19:29;;;;;;;6.40;3.45;;;;;;;;;;5034972;28;20109;-58
2021/03/17 11:22:33;;;;;;;4.70;2.90;;;;;;;;;;5053130;28;20044;-58
2021/03/17 11:25:17;;;;;;;6.40;3.03;;;;;;;;;;5053722;28;20028;-58
2021/03/17 11:28:13;;;;;;;6.33;3.87;;;;;;;;;;5053474;28;20082;-58
2021/03/17 11:30:59;;;;;;;5.97;3.77;;;;;;;;;;5027407;28;20570;-58
2021/03/17 11:33:51;;;;;;;7.87;4.30;;;;;;;;;;5037057;28;20033;-57
2021/03/17 11:36:38;;;;;;;4.67;3.73;;;;;;;;;;5051659;28;20086;-58
2021/03/17 11:42:06;;;;;;;4.97;3.57;;;;;;;;;;5040246;28;20101;-58
2021/03/17 11:44:35;;;;;;;5.33;3.80;;;;;;;;;;5057414;28;20028;-58
2021/03/17 11:47:32;;;;;;;6.97;3.97;;;;;;;;;;5057240;28;20082;-58
2021/03/17 11:53:28;;;;;;;6.00;4.13;;;;;;;;;;4995380;28;20070;-58
2021/03/17 11:56:20;;;;;;;4.70;3.97;;;;;;;;;;5048560;28;20045;-58
2021/03/17 11:59:08;;;;;;;5.57;3.70;;;;;;;;;;5056699;28;20029;-58
2021/03/17 12:02:04;;;;;;;4.80;3.40;;;;;;;;;;5039700;28;20090;-57
2021/03/17 12:10:58;;;;;;;6.37;3.83;;;;;;;;;;5051313;28;20479;-58
2021/03/17 12:13:27;;;;;;;5.77;4.40;;;;;;;;;;5057463;28;20029;-58
2021/03/17 12:15:53;;;;;;;7.77;4.97;;;;;;;;;;5056873;28;20029;-58
2021/03/17 12:18:44;;;;;;;7.00;4.90;;;;;;;;;;5057755;28;20028;-58
2021/03/17 12:24:34;;;;;;;7.30;4.40;;;;;;;;;;5056439;28;20044;-56
2021/03/17 12:27:28;;;;;;;8.50;5.50;;;;;;;;;;5057194;28;20120;-57
2021/03/17 12:30:22;;;;;;;9.97;6.10;;;;;;;;;;5056679;28;20025;-57
2021/03/17 12:33:09;;;;;;;7.00;5.30;;;;;;;;;;5055756;28;20135;-55
2021/03/17 12:35:43;;;;;;;4.70;3.00;;;;;;;;;;5056562;28;20052;-58
2021/03/17 12:38:16;;;;;;;6.40;4.20;;;;;;;;;;5034392;28;20048;-58
2021/03/17 12:40:53;;;;;;;5.13;4.07;;;;;;;;;;5034713;28;20038;-57
2021/03/17 12:43:55;;;;;;;8.40;5.57;;;;;;;;;;5017824;28;20041;-56
2021/03/17 12:49:27;;;;;;;10.03;5.57;;;;;;;;;;5021810;28;20112;-57
2021/03/17 12:52:02;;;;;;;6.67;5.00;;;;;;;;;;5034389;28;20052;-58
2021/03/17 12:54:34;;;;;;;5.33;4.10;;;;;;;;;;5034968;28;20045;-55
2021/03/17 12:57:12;;;;;;;7.87;5.53;;;;;;;;;;5034439;28;20057;-57
2021/03/17 13:00:02;;;;;;;6.37;5.13;;;;;;;;;;5034253;28;20033;-58
2021/03/17 13:05:26;;;;;;;5.80;4.37;;;;;;;;;;5031832;28;20063;-57
2021/03/17 13:08:18;;;;;;;6.13;4.17;;;;;;;;;;5055802;28;20025;-57
2021/03/17 13:13:49;;;;;;;6.67;4.77;;;;;;;;;;5052551;28;20029;-58
2021/03/17 13:19:19;;;;;;;7.63;5.77;;;;;;;;;;5044554;28;20067;-57
2021/03/17 13:21:59;;;;;;;5.60;4.47;;;;;;;;;;5037671;28;20479;-57
2021/03/17 13:24:55;;;;;;;8.40;5.47;;;;;;;;;;5056410;28;20052;-56
2021/03/17 13:28:06;;;;;;;6.47;5.57;;;;;;;;;;5045855;28;20481;-57
2021/03/17 13:30:26;;;;;;;7.83;5.80;;;;;;;;;;5046659;28;20056;-57
2021/03/17 13:33:01;;;;;;;7.77;5.50;;;;;;;;;;5056455;28;20463;-58
2021/03/17 13:35:47;;;;;;;5.97;4.50;;;;;;;;;;5039801;28;20057;-58
2021/03/17 13:41:35;;;;;;;6.93;6.20;;;;;;;;;;5055093;28;20029;-58
2021/03/17 13:44:28;;;;;;;8.60;6.40;;;;;;;;;;5055041;28;20028;-58
2021/03/17 13:47:23;;;;;;;12.47;8.17;;;;;;;;;;5054732;28;20471;-58
2021/03/17 13:52:48;;;;;;;11.90;9.30;;;;;;;;;;5041738;28;20056;-58
2021/03/17 13:58:15;;;;;;;10.60;8.80;;;;;;;;;;5045933;28;20501;-58
2021/03/17 14:00:54;;;;;;;8.77;7.50;;;;;;;;;;5035988;28;20041;-58
2021/03/17 14:03:21;;;;;;;16.27;11.07;;;;;;;;;;5055412;28;20359;-58
2021/03/17 14:06:10;;;;;;;15.27;9.63;;;;;;;;;;5055090;28;20029;-58
2021/03/17 14:08:52;;;;;;;10.23;8.30;;;;;;;;;;5053683;28;20044;-58
2021/03/17 14:11:32;;;;;;;9.10;7.47;;;;;;;;;;5036236;28;20052;-58
2021/03/17 14:14:14;;;;;;;8.97;6.83;;;;;;;;;;5054310;28;20375;-58
2021/03/17 14:17:15;;;;;;;8.53;5.27;;;;;;;;;;5054320;28;20028;-58
2021/03/17 14:20:00;;;;;;;7.65;4.95;;;;;;;;;;5054950;28;20032;-58
2021/03/17 14:22:53;;;;;;;6.80;5.67;;;;;;;;;;5054985;28;20452;-57
2021/03/17 14:29:09;;;;;;;8.30;5.83;;;;;;;;;;4972920;28;20034;-58
2021/03/17 14:32:07;;;;;;;5.77;4.63;;;;;;;;;;5052863;28;20043;-58
2021/03/17 14:34:43;;;;;;;11.03;5.73;;;;;;;;;;5054691;28;20421;-57
2021/03/17 14:37:27;;;;;;;5.73;5.13;;;;;;;;;;5037282;28;20447;-58
2021/03/17 14:40:24;;;;;;;6.40;5.80;;;;;;;;;;5025610;28;20037;-58
2021/03/17 14:43:22;;;;;;;9.13;7.30;;;;;;;;;;5054131;28;20116;-57
2021/03/17 14:45:57;;;;;;;8.90;5.63;;;;;;;;;;5054192;28;20033;-58
2021/03/17 14:48:37;;;;;;;;;;;;;;;;;;;;;
2021/03/17 14:51:11;;;;;;;5.20;4.50;;;;;;;;;;5041604;28;20041;-57
2021/03/17 14:53:43;;;;;;;7.30;5.53;;;;;;;;;;5052661;28;20033;-58
2021/03/17 14:56:57;;;;;;;;;;;;;;;;;;;;;
2021/03/17 15:02:37;;;;;;;5.60;3.83;;;;;;;;;;5053064;28;20041;-58
2021/03/17 15:05:09;;;;;;;6.83;3.93;;;;;;;;;;5053912;28;20112;-58
2021/03/17 15:07:38;;;;;;;5.30;3.87;;;;;;;;;;5053368;28;20029;-57
2021/03/17 15:13:32;;;;;;;6.57;5.00;;;;;;;;;;5053855;28;20072;-56
2021/03/17 15:16:21;;;;;;;3.65;2.72;;;;;;;;;;5053749;28;20033;-58
2021/03/17 15:22:13;;;;;;;1.90;0.97;;;;;;;;;;5053386;28;20041;-58
2021/03/17 15:24:45;;;;;;;2.10;1.40;;;;;;;;;;5053289;28;20055;-58
2021/03/17 15:27:17;;;;;;;5.70;1.60;;;;;;;;;;5053379;28;20025;-57
2021/03/17 15:33:02;;;;;;;1.90;1.20;;;;;;;;;;5016539;28;20511;-57
2021/03/17 15:35:34;;;;;;;2.20;0.60;;;;;;;;;;5036377;28;20065;-57
2021/03/17 15:38:19;;;;;;;2.13;1.03;;;;;;;;;;5053138;28;20409;-56
2021/03/17 15:40:58;;;;;;;1.20;0.90;;;;;;;;;;5053852;28;20412;-56
2021/03/17 15:46:18;;;;;;;2.10;1.37;;;;;;;;;;5053821;28;20490;-57
2021/03/17 15:49:15;;;;;;;;;;;;;;;;;;;;;
2021/03/17 15:52:14;;;;;;;1.80;1.23;;;;;;;;;;5048704;28;20374;-55
2021/03/17 15:55:04;;;;;;;2.00;1.17;;;;;;;;;;5035211;28;20033;-57
2021/03/17 16:00:41;;;;;;;3.17;1.60;;;;;;;;;;5038384;28;20478;-57
2021/03/17 16:06:09;;;;;;;1.97;1.37;;;;;;;;;;5054001;28;20036;-57
2021/03/17 16:17:44;;;;;;;3.93;2.93;;;;;;;;;;5053424;28;20055;-57
2021/03/17 16:20:54;;;;;;;3.87;2.73;;;;;;;;;;5054388;28;20052;-58
2021/03/17 16:23:20;;;;;;;3.75;3.08;;;;;;;;;;4981955;28;20382;-56
2021/03/17 16:26:04;;;;;;;5.00;3.17;;;;;;;;;;5057863;28;20412;-57
2021/03/17 16:28:35;;;;;;;4.40;3.50;;;;;;;;;;5057142;28;20048;-58
2021/03/17 16:31:32;;;;;;;3.17;2.67;;;;;;;;;;5038804;28;20033;-58
2021/03/17 16:34:01;;;;;;;4.47;3.13;;;;;;;;;;5038143;28;20093;-58
2021/03/17 16:37:02;;;;;;;3.70;3.23;;;;;;;;;;5022901;28;20041;-57
2021/03/17 16:39:52;;;;;;;4.63;3.07;;;;;;;;;;5055295;28;20033;-58
2021/03/17 16:42:44;;;;;;;5.07;2.97;;;;;;;;;;5057130;28;20118;-58
2021/03/17 16:48:23;;;;;;;4.87;3.37;;;;;;;;;;5036658;28;20025;-58
2021/03/17 16:51:05;;;;;;;4.18;2.97;;;;;;;;;;5040224;28;20108;-58
2021/03/17 16:53:44;;;;;;;4.87;3.10;;;;;;;;;;5038326;28;20029;-57
2021/03/17 16:56:10;;;;;;;5.43;3.00;;;;;;;;;;5055940;28;20021;-58
2021/03/17 16:59:00;;;;;;;5.17;4.13;;;;;;;;;;5055430;28;20033;-57
2021/03/17 17:01:44;;;;;;;;;;;;;;;;;;;;;
2021/03/17 17:04:13;;;;;;;4.30;2.50;;;;;;;;;;5052598;28;20039;-58
2021/03/17 17:10:18;;;;;;;4.27;2.60;;;;;;;;;;4993592;28;20049;-58
2021/03/17 17:12:55;;;;;;;3.80;2.90;;;;;;;;;;5055685;28;20070;-58
2021/03/17 17:15:35;;;;;;;3.93;3.27;;;;;;;;;;5055505;28;20025;-57
2021/03/17 17:18:20;;;;;;;16.08;4.28;;;;;;;;;;5055673;28;20021;-57
2021/03/17 17:20:56;;;;;;;4.77;3.00;;;;;;;;;;5055766;28;20017;-58
2021/03/17 17:32:01;;;;;;;5.63;4.10;;;;;;;;;;4993868;28;20042;-57
2021/03/17 17:34:40;;;;;;;6.40;4.93;;;;;;;;;;4994646;28;20038;-57
2021/03/17 17:37:15;;;;;;;5.33;3.07;;;;;;;;;;4994148;28;20150;-56
2021/03/17 17:39:56;;;;;;;6.57;4.53;;;;;;;;;;4977882;28;20038;-58
2021/03/17 17:42:28;;;;;;;4.40;3.20;;;;;;;;;;4978324;28;20486;-57
2021/03/17 17:45:14;;;;;;;5.93;4.03;;;;;;;;;;4993508;28;20034;-57
2021/03/17 17:48:05;;;;;;;5.13;4.00;;;;;;;;;;4992650;28;20145;-58
2021/03/17 17:50:41;;;;;;;6.07;3.60;;;;;;;;;;5016169;28;20079;-57
2021/03/17 17:53:16;;;;;;;4.87;3.10;;;;;;;;;;5055154;28;20040;-57
2021/03/17 17:56:03;;;;;;;3.80;2.67;;;;;;;;;;5036889;28;20537;-58
2021/03/17 17:59:10;;;;;;;6.93;3.87;;;;;;;;;;5054498;28;20021;-57
2021/03/17 18:01:45;;;;;;;4.77;3.57;;;;;;;;;;5036691;28;20033;-56
2021/03/17 18:04:18;;;;;;;3.63;3.30;;;;;;;;;;5038092;28;20436;-58
2021/03/17 18:06:53;;;;;;;4.33;3.40;;;;;;;;;;5054609;28;20025;-57
2021/03/17 18:09:21;;;;;;;4.07;2.80;;;;;;;;;;5054716;28;20068;-57
2021/03/17 18:12:15;;;;;;;5.07;2.80;;;;;;;;;;5054161;28;20434;-55
2021/03/17 18:21:46;;;;;;;3.47;2.37;;;;;;;;;;5055068;28;20068;-57
2021/03/17 18:24:15;;;;;;;7.13;1.93;;;;;;;;;;5054819;28;20029;-57
2021/03/17 18:26:47;;;;;;;4.33;1.80;;;;;;;;;;5036619;28;20112;-57
2021/03/17 18:32:38;;;;;;;;;;;;;;;;;;;;;
2021/03/17 18:35:54;;;;;;;;;;;;;;;;;;;;;
2021/03/17 18:41:21;;;;;;;3.87;2.00;;;;;;;;;;4999841;28;20380;-58
2021/03/17 18:44:05;;;;;;;3.57;2.77;;;;;;;;;;4967894;28;20403;-57
2021/03/17 18:46:44;;;;;;;3.30;2.23;;;;;;;;;;5055110;28;20040;-58
2021/03/17 18:49:22;;;;;;;;;;;;;;;;;;;;;
2021/03/17 18:52:00;;;;;;;4.70;1.83;;;;;;;;;;5019797;28;20041;-58
2021/03/17 18:54:30;;;;;;;5.87;1.40;;;;;;;;;;5034506;28;20029;-58
2021/03/17 18:57:11;;;;;;;2.73;1.30;;;;;;;;;;5055332;28;20021;-57
2021/03/17 18:59:58;;;;;;;6.40;1.93;;;;;;;;;;5054149;28;20104;-58
2021/03/17 19:02:43;;;;;;;2.10;1.43;;;;;;;;;;5037349;28;20128;-58
2021/03/17 19:05:39;;;;;;;2.47;1.30;;;;;;;;;;5052494;28;20169;-58
2021/03/17 19:08:20;;;;;;;2.28;0.85;;;;;;;;;;5053598;28;20078;-57
2021/03/17 19:10:55;;;;;;;2.80;1.80;;;;;;;;;;5049962;28;20052;-58
2021/03/17 19:13:30;;;;;;;4.67;1.90;;;;;;;;;;5053943;28;20025;-58
2021/03/17 19:18:56;;;;;;;3.53;1.07;;;;;;;;;;5053698;28;20384;-57
2021/03/17 19:21:38;;;;;;;2.60;1.83;;;;;;;;;;5054307;28;20471;-57
2021/03/17 19:24:13;;;;;;;2.03;0.90;;;;;;;;;;5054215;28;20060;-57
2021/03/17 19:27:00;;;;;;;1.83;1.30;;;;;;;;;;5053832;28;20536;-57
2021/03/17 19:29:32;;;;;;;1.70;1.07;;;;;;;;;;5053221;28;20025;-57
2021/03/17 19:32:20;;;;;;;3.17;2.27;;;;;;;;;;5036171;28;20033;-57
2021/03/17 19:34:55;;;;;;;2.33;1.40;;;;;;;;;;5035304;28;20047;-58
2021/03/17 19:37:37;;;;;;;4.33;2.03;;;;;;;;;;5053417;28;20044;-57
2021/03/17 19:40:24;;;;;;;3.00;1.80;;;;;;;;;;5035328;28;20047;-57
2021/03/17 19:43:22;;;;;;;;;;;;;;;;;;;;;
2021/03/17 19:49:30;;;;;;;4.90;2.30;;;;;;;;;;5050115;28;20032;-57
2021/03/17 19:52:02;;;;;;;2.13;1.40;;;;;;;;;;5043355;28;20040;-55
2021/03/17 20:00:26;;;;;;;5.00;2.23;;;;;;;;;;4995124;28;20035;-57
2021/03/17 20:03:00;;;;;;;5.97;3.08;;;;;;;;;;5047139;28;20037;-58
2021/03/17 20:05:46;;;;;;;2.50;1.83;;;;;;;;;;5057571;28;20025;-58
2021/03/17 20:11:36;;;;;;;2.67;1.80;;;;;;;;;;5023077;28;20399;-56
2021/03/17 20:14:16;;;;;;;8.63;2.20;;;;;;;;;;5057407;28;20032;-57
2021/03/17 20:17:03;;;;;;;2.20;1.20;;;;;;;;;;5056616;28;20021;-57
2021/03/17 20:19:51;;;;;;;4.37;1.43;;;;;;;;;;5057263;28;20017;-56
2021/03/17 20:22:23;;;;;;;2.40;1.33;;;;;;;;;;5038478;28;20037;-57
2021/03/17 20:24:59;;;;;;;4.30;2.70;;;;;;;;;;5053563;28;20128;-57